Time;durP1;ratioP1;P1;durP2;ratioP2;P2;SDS_P1;SDS_P2;PMS_P1;PMS_P2;Temp;Humidity;BMP_temperature;BMP_pressure;BME280_temperature;BME280_humidity;BME280_pressure;Samples;Min_cycle;Max_cycle;Signal;HPM_P1;HPM_P2
2022/02/05 00:02:37;;;;;;;;;5.00;4.25;;;;;7.79;100.00;101970.16;5076498;27;45387;-81
2022/02/05 00:05:04;;;;;;;;;3.00;3.00;;;;;7.78;100.00;101962.34;5076568;28;45232;-81
2022/02/05 00:07:33;;;;;;;;;4.75;4.00;;;;;7.73;100.00;101968.03;5076908;28;45473;-81
2022/02/05 00:11:02;;;;;;;;;7.50;5.50;;;;;7.78;100.00;101977.81;5057744;28;45656;-81
2022/02/05 00:42:47;;;;;;;;;9.75;7.75;;;;;7.78;100.00;101967.50;5077744;27;45767;-82
2022/02/05 00:45:15;;;;;;;;;9.75;5.75;;;;;7.79;100.00;101982.19;5082121;27;45821;-82
2022/02/05 00:47:44;;;;;;;;;8.00;6.50;;;;;7.77;100.00;101978.56;5064885;28;45389;-82
2022/02/05 00:50:17;;;;;;;;;4.25;4.25;;;;;7.72;100.00;101976.53;5083231;27;45667;-83
2022/02/05 00:52:55;;;;;;;;;6.50;5.00;;;;;7.79;100.00;101980.47;5082810;27;46374;-83
2022/02/05 00:55:22;;;;;;;;;7.25;4.50;;;;;7.78;100.00;101977.81;5082592;27;45705;-83
2022/02/05 00:57:50;;;;;;;;;7.75;5.00;;;;;7.76;100.00;101977.69;5082567;28;45424;-82
2022/02/05 01:00:20;;;;;;;;;4.25;4.25;;;;;7.71;100.00;101977.34;5081957;28;45495;-82
2022/02/05 01:02:46;;;;;;;;;7.00;7.00;;;;;7.71;100.00;101979.94;5081754;27;46183;-82
2022/02/05 01:05:12;;;;;;;;;5.25;4.75;;;;;7.73;100.00;101991.22;5082226;28;45875;-82
2022/02/05 01:07:38;;;;;;;;;7.50;5.00;;;;;7.75;100.00;101991.38;5082550;27;45416;-83
2022/02/05 01:10:05;;;;;;;;;3.75;3.75;;;;;7.74;100.00;101984.41;5082489;28;45461;-82
2022/02/05 01:12:33;;;;;;;;;5.50;4.25;;;;;7.79;100.00;101998.53;5083124;28;45411;-83
2022/02/05 01:15:01;;;;;;;;;3.00;3.00;;;;;7.77;100.00;101984.66;5082700;27;45252;-83
2022/02/05 01:17:34;;;;;;;;;7.50;4.50;;;;;7.83;100.00;102004.84;5082099;27;45323;-83
2022/02/05 01:22:34;;;;;;;;;4.50;4.50;;;;;7.82;100.00;102000.47;5082587;27;45351;-82
2022/02/05 01:25:00;;;;;;;;;8.00;4.50;;;;;7.83;100.00;101999.69;5060684;28;45856;-82
2022/02/05 01:27:33;;;;;;;;;6.50;5.00;;;;;7.82;100.00;102003.91;5062130;28;45261;-83
2022/02/05 01:32:29;;;;;;;;;3.25;3.00;;;;;7.83;100.00;102015.16;5078327;27;45571;-80
2022/02/05 01:35:44;;;;;;;;;4.00;4.00;;;;;7.82;100.00;102021.97;5078798;27;45835;-80
2022/02/05 01:56:49;;;;;;;;;9.50;5.25;;;;;7.75;100.00;102035.19;5078418;28;45225;-82
2022/02/05 01:59:46;;;;;;;;;5.00;5.00;;;;;7.77;100.00;102040.44;5078790;27;45267;-82
2022/02/05 02:05:03;;;;;;;;;4.50;3.00;;;;;7.77;100.00;102046.53;5078549;28;45276;-82
2022/02/05 02:19:16;;;;;;;;;3.00;3.00;;;;;7.69;100.00;102045.00;5078323;28;45792;-81
2022/02/05 02:21:52;;;;;;;;;8.00;4.00;;;;;7.62;100.00;102051.38;5078936;28;45364;-81
2022/02/05 02:24:37;;;;;;;;;2.75;2.50;;;;;7.58;100.00;102049.38;5078353;28;45280;-82
2022/02/05 02:29:42;;;;;;;;;4.50;3.00;;;;;7.59;100.00;102061.47;5077552;27;45270;-82
2022/02/05 02:32:12;;;;;;;;;3.50;2.00;;;;;7.61;100.00;102056.44;5077796;27;45398;-81
2022/02/05 02:34:43;;;;;;;;;10.50;3.50;;;;;7.58;100.00;102062.25;5077962;27;45533;-81
2022/02/05 02:37:11;;;;;;;;;6.00;3.75;;;;;7.55;100.00;102060.34;5077443;28;45839;-81
2022/02/05 02:39:56;;;;;;;;;4.75;2.75;;;;;7.49;100.00;102059.84;5059920;28;45919;-81
2022/02/05 02:42:23;;;;;;;;;3.75;2.75;;;;;7.47;100.00;102063.97;5076216;28;45343;-81
2022/02/05 02:44:48;;;;;;;;;3.25;3.25;;;;;7.41;100.00;102063.53;5077634;28;45558;-81
2022/02/05 02:47:15;;;;;;;;;7.25;5.00;;;;;7.43;100.00;102069.69;5076451;28;45577;-82
2022/02/05 02:57:50;;;;;;;;;3.00;3.00;;;;;7.40;100.00;102082.34;5061854;28;45448;-82
2022/02/05 03:00:15;;;;;;;;;3.00;3.00;;;;;7.40;100.00;102066.88;5076843;27;45403;-81
2022/02/05 03:02:41;;;;;;;;;2.50;2.25;;;;;7.37;100.00;102064.97;5077594;28;45440;-82
2022/02/05 03:05:07;;;;;;;;;3.50;3.50;;;;;7.38;100.00;102071.00;5077131;27;45415;-82
2022/02/05 03:07:37;;;;;;;;;4.00;3.00;;;;;7.39;100.00;102077.94;5077458;27;45289;-82
2022/02/05 03:10:03;;;;;;;;;5.25;3.75;;;;;7.39;100.00;102081.44;5077587;28;45564;-82
2022/02/05 03:12:29;;;;;;;;;4.00;3.00;;;;;7.40;100.00;102087.47;5077536;27;45431;-83
2022/02/05 03:14:55;;;;;;;;;4.25;3.00;;;;;7.40;100.00;102090.06;5077343;27;45315;-82
2022/02/05 03:17:23;;;;;;;;;4.50;3.50;;;;;7.40;100.00;102098.69;5076277;28;46117;-82
2022/02/05 03:19:55;;;;;;;;;4.00;4.00;;;;;7.37;100.00;102088.16;5058455;28;45402;-82
2022/02/05 03:22:22;;;;;;;;;2.00;2.00;;;;;7.40;100.00;102096.09;5076888;28;45280;-82
2022/02/05 03:24:49;;;;;;;;;2.50;2.50;;;;;7.40;100.00;102105.53;5058695;28;45378;-82
2022/02/05 03:27:16;;;;;;;;;4.25;3.25;;;;;7.40;100.00;102106.41;5076759;28;45390;-82
2022/02/05 03:29:46;;;;;;;;;7.50;3.00;;;;;7.40;100.00;102103.81;5076901;28;45240;-82
2022/02/05 03:32:12;;;;;;;;;3.00;3.00;;;;;7.39;100.00;102106.28;5076541;27;45409;-81
2022/02/05 03:34:38;;;;;;;;;5.00;3.25;;;;;7.39;100.00;102104.63;5077287;27;45345;-82
2022/02/05 03:37:05;;;;;;;;;7.00;3.75;;;;;7.40;100.00;102111.56;5075900;27;45461;-82
2022/02/05 03:39:31;;;;;;;;;3.00;3.00;;;;;7.41;100.00;102113.34;5077050;28;45761;-82
2022/02/05 03:41:56;;;;;;;;;2.00;2.00;;;;;7.40;100.00;102110.66;5076892;28;45200;-82
2022/02/05 03:44:23;;;;;;;;;2.00;2.00;;;;;7.36;100.00;102117.28;5076136;28;45556;-82
2022/02/05 03:46:50;;;;;;;;;4.25;4.00;;;;;7.33;100.00;102111.88;5075908;28;46304;-81
2022/02/05 03:49:17;;;;;;;;;4.00;4.00;;;;;7.30;100.00;102109.03;5076130;28;45945;-82
2022/02/05 03:51:47;;;;;;;;;3.75;3.00;;;;;7.30;100.00;102115.88;5076280;27;45347;-82
2022/02/05 03:54:14;;;;;;;;;3.75;3.75;;;;;7.23;100.00;102120.56;5076351;28;45542;-82
2022/02/05 03:56:40;;;;;;;;;5.50;4.50;;;;;7.22;100.00;102129.06;5057781;28;47995;-82
2022/02/05 03:59:06;;;;;;;;;3.25;3.00;;;;;7.22;100.00;102125.56;5075953;28;45450;-82
2022/02/05 04:01:32;;;;;;;;;3.25;2.00;;;;;7.20;100.00;102120.31;5077275;28;45471;-82
2022/02/05 04:03:58;;;;;;;;;2.00;2.00;;;;;7.17;100.00;102117.47;5076214;28;46050;-83
2022/02/05 04:06:23;;;;;;;;;3.00;2.00;;;;;7.19;100.00;102120.16;5075970;28;45369;-82
2022/02/05 04:08:51;;;;;;;;;3.00;3.00;;;;;7.17;100.00;102114.91;5076635;28;45275;-82
2022/02/05 04:11:31;;;;;;;;;6.00;3.75;;;;;7.17;100.00;102119.16;5058094;28;45414;-82
2022/02/05 04:16:47;;;;;;;;;2.75;2.75;;;;;7.17;100.00;102121.75;5075751;27;45461;-82
2022/02/05 04:19:13;;;;;;;;;8.25;2.25;;;;;7.17;100.00;102120.06;5076089;28;45332;-82
2022/02/05 04:21:39;;;;;;;;;2.75;2.50;;;;;7.13;100.00;102116.34;5075914;28;45402;-81
2022/02/05 04:24:05;;;;;;;;;3.50;2.00;;;;;7.09;100.00;102109.13;5075710;28;45560;-82
2022/02/05 04:26:31;;;;;;;;;7.50;5.75;;;;;7.08;100.00;102120.22;5076075;28;45331;-82
2022/02/05 04:28:57;;;;;;;;;7.75;3.00;;;;;7.11;100.00;102115.31;5057220;28;45358;-83
2022/02/05 04:31:23;;;;;;;;;3.75;2.00;;;;;7.13;100.00;102108.63;5076375;27;45457;-83
2022/02/05 04:33:49;;;;;;;;;4.00;2.25;;;;;7.15;100.00;102119.03;5076788;27;45327;-82
2022/02/05 04:36:16;;;;;;;;;6.00;3.50;;;;;7.16;100.00;102115.69;5075924;28;45478;-82
2022/02/05 04:38:44;;;;;;;;;3.25;3.00;;;;;7.16;100.00;102109.63;5057910;28;45756;-82
2022/02/05 04:41:20;;;;;;;;;2.25;2.25;;;;;7.13;100.00;102112.84;5075648;28;45389;-82
2022/02/05 04:52:00;;;;;;;;;2.50;2.00;;;;;7.16;100.00;102132.81;5075897;28;45423;-82
2022/02/05 05:02:15;;;;;;;;;6.75;3.00;;;;;7.25;100.00;102133.56;5075443;28;45393;-82
2022/02/05 05:04:25;;;;;;;;;3.00;1.25;;;;;7.27;100.00;102129.44;5069939;27;45296;-82
2022/02/05 05:20:14;;;;;;;;;3.00;2.50;;;;;7.30;100.00;102139.06;5078209;28;45880;-82
2022/02/05 05:22:40;;;;;;;;;3.75;2.75;;;;;7.26;100.00;102133.66;5060765;28;45345;-83
2022/02/05 05:25:06;;;;;;;;;7.25;2.00;;;;;7.21;100.00;102137.56;5078597;27;45421;-82
2022/02/05 05:27:32;;;;;;;;;3.50;2.00;;;;;7.18;100.00;102147.59;5079456;28;46650;-83
2022/02/05 05:29:59;;;;;;;;;7.25;3.00;;;;;7.15;100.00;102149.94;5078850;28;45282;-82
2022/02/05 05:32:25;;;;;;;;;2.25;2.00;;;;;7.11;100.00;102142.75;5077983;27;45347;-83
2022/02/05 05:34:50;;;;;;;;;2.00;2.00;;;;;7.11;100.00;102143.63;5079148;27;45607;-83
2022/02/05 05:37:20;;;;;;;;;3.00;2.75;;;;;7.10;100.00;102133.22;5058839;28;45549;-83
2022/02/05 05:39:49;;;;;;;;;3.00;3.00;;;;;7.08;100.00;102142.50;5042827;28;45977;-80
2022/02/05 05:42:24;;;;;;;;;3.00;3.00;;;;;7.05;100.00;102147.41;5077850;28;45232;-83
2022/02/05 05:47:51;;;;;;;;;6.25;2.00;;;;;6.98;100.00;102140.84;5074785;28;46103;-83
2022/02/05 05:53:03;;;;;;;;;2.00;2.00;;;;;6.96;100.00;102145.00;5078773;28;45382;-84
2022/02/05 05:55:29;;;;;;;;;2.75;1.75;;;;;6.95;100.00;102146.66;5078320;27;45457;-83
2022/02/05 05:57:56;;;;;;;;;2.00;2.00;;;;;7.00;100.00;102149.59;5076724;27;45460;-83
2022/02/05 06:00:22;;;;;;;;;7.25;2.75;;;;;7.06;100.00;102151.78;5077274;28;45457;-83
2022/02/05 06:02:47;;;;;;;;;2.00;1.75;;;;;7.07;100.00;102151.88;5077495;27;45321;-82
2022/02/05 06:05:13;;;;;;;;;2.00;2.00;;;;;7.08;100.00;102153.69;5078079;27;45633;-83
2022/02/05 06:07:39;;;;;;;;;2.00;1.00;;;;;7.10;100.00;102159.88;5077851;27;46136;-83
2022/02/05 06:10:05;;;;;;;;;1.00;1.00;;;;;7.06;100.00;102164.66;5077637;27;45470;-83
2022/02/05 06:12:31;;;;;;;;;2.00;2.00;;;;;7.02;100.00;102158.34;5077875;28;45562;-83
2022/02/05 06:14:58;;;;;;;;;2.25;1.25;;;;;6.94;100.00;102164.56;5078129;27;45547;-83
2022/02/05 06:17:25;;;;;;;;;2.25;2.00;;;;;6.93;100.00;102166.22;5077170;28;45460;-82
2022/02/05 06:19:52;;;;;;;;;4.50;2.50;;;;;6.88;100.00;102169.19;5077924;28;45607;-82
2022/02/05 06:22:18;;;;;;;;;3.25;3.00;;;;;6.86;100.00;102166.50;5077956;27;45287;-82
2022/02/05 06:24:44;;;;;;;;;4.00;2.00;;;;;6.86;100.00;102161.34;5078239;27;45355;-83
2022/02/05 06:27:09;;;;;;;;;2.25;2.25;;;;;6.88;100.00;102164.97;5077000;28;45929;-83
2022/02/05 06:29:35;;;;;;;;;2.00;2.00;;;;;6.90;100.00;102168.56;5077865;28;45455;-82
2022/02/05 06:32:01;;;;;;;;;2.25;2.25;;;;;6.95;100.00;102181.81;5078452;28;45312;-82
2022/02/05 06:34:27;;;;;;;;;1.25;1.00;;;;;6.96;100.00;102171.63;5077580;28;45362;-82
2022/02/05 06:36:54;;;;;;;;;3.50;2.50;;;;;6.96;100.00;102176.78;5077469;28;46147;-82
2022/02/05 06:39:20;;;;;;;;;1.50;1.50;;;;;6.96;100.00;102176.78;5058814;28;45425;-82
2022/02/05 06:41:46;;;;;;;;;3.00;2.50;;;;;6.97;100.00;102187.97;5077503;28;45298;-81
2022/02/05 06:44:13;;;;;;;;;4.00;3.00;;;;;6.96;100.00;102199.94;5077363;28;45563;-82
2022/02/05 06:46:39;;;;;;;;;5.50;4.50;;;;;6.96;100.00;102210.25;5077289;27;45992;-82
2022/02/05 06:49:06;;;;;;;;;2.25;2.25;;;;;6.98;100.00;102205.22;5058933;28;45545;-82
2022/02/05 06:51:32;;;;;;;;;7.00;2.25;;;;;6.95;100.00;102216.16;5077707;27;45369;-82
2022/02/05 06:53:57;;;;;;;;;2.75;2.00;;;;;6.90;100.00;102220.06;5077105;28;45265;-83
2022/02/05 06:56:24;;;;;;;;;2.50;2.00;;;;;6.82;100.00;102219.41;5058313;28;46247;-82
2022/02/05 06:58:49;;;;;;;;;6.00;4.50;;;;;6.83;100.00;102222.88;5080175;27;45376;-83
2022/02/05 07:01:15;;;;;;;;;6.25;3.00;;;;;6.81;100.00;102225.34;5058708;28;45234;-82
2022/02/05 07:03:41;;;;;;;;;4.75;4.75;;;;;6.82;100.00;102221.06;5077932;28;45197;-83
2022/02/05 07:06:07;;;;;;;;;5.75;3.00;;;;;6.80;100.00;102223.53;5058995;28;45418;-82
2022/02/05 07:08:33;;;;;;;;;4.00;3.25;;;;;6.81;100.00;102227.00;5058132;28;45452;-82
2022/02/05 07:10:58;;;;;;;;;3.50;3.50;;;;;6.81;100.00;102225.34;5077003;28;45526;-82
2022/02/05 07:13:24;;;;;;;;;9.25;5.25;;;;;6.87;100.00;102236.91;5088992;28;45377;-81
2022/02/05 07:21:09;;;;;;;;;3.25;2.75;;;;;6.95;100.00;102238.47;5079311;27;45232;-79
2022/02/05 07:23:55;;;;;;;;;3.25;2.75;;;;;6.95;100.00;102244.50;5063003;28;45433;-83
2022/02/05 07:31:48;;;;;;;;;4.00;4.00;;;;;6.96;100.00;102248.88;5077125;28;45528;-82
2022/02/05 07:34:16;;;;;;;;;7.50;4.00;;;;;7.02;100.00;102253.63;5085700;28;45400;-82
2022/02/05 07:36:42;;;;;;;;;4.75;4.75;;;;;7.03;100.00;102260.59;5078262;27;45663;-82
2022/02/05 07:39:09;;;;;;;;;6.75;6.00;;;;;7.04;100.00;102257.25;5057381;28;45815;-83
2022/02/05 07:41:37;;;;;;;;;7.00;5.25;;;;;7.05;100.00;102266.78;5074379;28;45514;-82
2022/02/05 07:44:03;;;;;;;;;8.75;4.50;;;;;7.05;100.00;102265.84;5075379;27;45482;-82
2022/02/05 07:46:29;;;;;;;;;9.00;4.00;;;;;7.06;100.00;102266.00;5075734;28;45350;-82
2022/02/05 07:48:55;;;;;;;;;5.25;5.25;;;;;7.06;100.00;102271.16;5075400;28;45462;-82
2022/02/05 07:51:21;;;;;;;;;5.75;5.75;;;;;7.01;100.00;102256.97;5076108;28;45478;-82
2022/02/05 07:53:47;;;;;;;;;9.00;6.75;;;;;6.99;100.00;102267.94;5057476;28;45468;-79
2022/02/05 07:56:13;;;;;;;;;8.50;4.75;;;;;6.97;100.00;102267.78;5076709;28;45991;-76
2022/02/05 07:58:39;;;;;;;;;2.00;2.00;;;;;6.96;100.00;102269.47;5077298;27;45472;-79
2022/02/05 08:01:05;;;;;;;;;7.75;6.00;;;;;6.97;100.00;102262.63;5075542;28;45407;-76
2022/02/05 08:03:31;;;;;;;;;6.50;4.25;;;;;6.96;100.00;102266.00;5076928;28;45440;-79
2022/02/05 08:06:00;;;;;;;;;3.75;3.00;;;;;6.97;100.00;102252.34;5075540;28;46488;-80
2022/02/05 08:08:30;;;;;;;;;5.75;4.25;;;;;7.02;100.00;102255.31;5075676;28;45402;-86
2022/02/05 08:11:04;;;;;;;;;4.25;4.25;;;;;7.02;100.00;102255.31;5078512;28;45488;-85
2022/02/05 08:13:32;;;;;;;;;9.50;7.00;;;;;6.94;100.00;102255.56;5084940;28;45331;-87
2022/02/05 08:16:10;;;;;;;;;6.75;4.00;;;;;6.93;100.00;102253.75;5078639;28;46374;-85
2022/02/05 08:18:38;;;;;;;;;7.00;6.00;;;;;6.98;100.00;102256.72;5080036;27;45927;-82
2022/02/05 08:21:04;;;;;;;;;6.50;6.00;;;;;6.97;100.00;102257.50;5077676;28;45399;-83
2022/02/05 08:23:31;;;;;;;;;4.25;2.75;;;;;6.96;100.00;102251.44;5077026;27;45280;-80
2022/02/05 08:25:57;;;;;;;;;7.25;4.50;;;;;6.99;100.00;102250.78;5076619;28;45297;-85
2022/02/05 08:28:22;;;;;;;;;6.75;4.00;;;;;6.99;100.00;102243.06;5059290;27;45310;-84
2022/02/05 08:30:48;;;;;;;;;8.00;4.75;;;;;6.99;100.00;102244.75;5083319;27;45402;-81
2022/02/05 08:33:13;;;;;;;;;3.75;3.75;;;;;7.00;100.00;102247.44;5077139;28;45802;-82
2022/02/05 08:35:41;;;;;;;;;8.50;7.50;;;;;6.98;100.00;102251.56;5076479;27;45712;-84
2022/02/05 08:38:07;;;;;;;;;6.25;3.00;;;;;6.99;100.00;102244.75;5076025;28;45390;-80
2022/02/05 08:40:33;;;;;;;;;3.75;3.75;;;;;7.00;100.00;102250.03;5083298;28;45266;-84
2022/02/05 08:42:59;;;;;;;;;7.50;3.75;;;;;7.00;100.00;102251.72;5064764;28;45248;-85
2022/02/05 08:45:24;;;;;;;;;8.00;4.75;;;;;7.04;100.00;102253.75;5080253;27;45362;-83
2022/02/05 08:47:51;;;;;;;;;5.50;3.00;;;;;7.08;100.00;102253.25;5081778;28;45244;-84
2022/02/05 08:50:17;;;;;;;;;5.50;5.50;;;;;7.09;100.00;102249.88;5080005;27;45272;-79
2022/02/05 08:52:43;;;;;;;;;4.75;3.00;;;;;7.13;100.00;102249.34;5086009;27;45177;-89
2022/02/05 08:55:09;;;;;;;;;6.25;3.25;;;;;7.20;100.00;102256.81;5080801;28;46384;-81
2022/02/05 08:57:35;;;;;;;;;6.75;6.00;;;;;7.22;100.00;102264.66;5079994;27;45481;-80
2022/02/05 09:00:12;;;;;;;;;3.50;3.50;;;;;7.27;100.00;102272.00;5079626;28;45362;-83
2022/02/05 09:02:49;;;;;;;;;7.25;4.00;;;;;7.29;100.00;102266.97;5079618;27;45341;-83
2022/02/05 09:05:33;;;;;;;;;4.75;2.75;;;;;7.29;100.00;102264.38;5078322;27;45321;-83
2022/02/05 09:07:59;;;;;;;;;5.50;2.50;;;;;7.31;100.00;102267.09;5078496;27;45977;-82
2022/02/05 09:13:38;;;;;;;;;5.00;3.00;;;;;7.35;100.00;102276.88;5078603;28;45334;-80
2022/02/05 09:15:40;;;;;;;;;8.00;4.00;;;;;7.32;100.00;102269.78;5073731;27;46143;-88
2022/02/05 09:18:05;;;;;;;;;3.00;2.50;;;;;7.37;100.00;102278.81;5080273;27;45506;-83
2022/02/05 09:20:31;;;;;;;;;4.25;4.25;;;;;7.37;100.00;102273.66;5079360;27;45363;-81
2022/02/05 09:22:57;;;;;;;;;4.50;2.25;;;;;7.39;100.00;102273.78;5069952;28;45404;-86
2022/02/05 09:25:26;;;;;;;;;6.00;3.75;;;;;7.40;100.00;102273.00;5071966;28;46950;-87
2022/02/05 09:27:52;;;;;;;;;5.75;2.25;;;;;7.44;100.00;102272.47;5062029;28;45777;-85
2022/02/05 09:30:28;;;;;;;;;7.00;2.25;;;;;7.44;100.00;102268.22;5079991;28;45392;-84
2022/02/05 09:32:53;;;;;;;;;2.00;2.00;;;;;7.47;100.00;102267.56;5080202;27;45896;-82
2022/02/05 09:35:23;;;;;;;;;7.50;4.25;;;;;7.52;100.00;102260.19;5078180;27;45943;-82
2022/02/05 09:37:50;;;;;;;;;5.75;3.00;;;;;7.60;100.00;102264.31;5077261;27;45221;-82
2022/02/05 09:40:16;;;;;;;;;12.00;9.00;;;;;7.67;100.00;102263.09;5080321;28;46399;-87
2022/02/05 09:42:46;;;;;;;;;7.00;5.25;;;;;7.72;100.00;102266.97;5061482;28;45453;-88
2022/02/05 09:45:12;;;;;;;;;4.00;2.75;;;;;7.74;100.00;102268.00;5077684;27;45448;-80
2022/02/05 09:47:38;;;;;;;;;6.50;3.75;;;;;7.80;100.00;102267.56;5078558;28;45277;-78
2022/02/05 09:50:04;;;;;;;;;7.75;3.75;;;;;7.82;100.00;102274.66;5078744;28;45356;-83
2022/02/05 09:52:30;;;;;;;;;6.25;3.25;;;;;7.87;100.00;102275.00;5078330;28;45561;-83
2022/02/05 09:54:56;;;;;;;;;7.00;4.00;;;;;7.91;100.00;102287.38;5077864;28;46107;-82
2022/02/05 09:57:22;;;;;;;;;6.75;4.00;;;;;7.93;100.00;102274.59;5078294;27;45777;-83
2022/02/05 10:00:01;;;;;;;;;4.25;3.25;;;;;7.97;100.00;102282.69;5078530;27;45613;-82
2022/02/05 10:02:34;;;;;;;;;4.00;4.00;;;;;7.98;100.00;102287.06;5080454;28;45511;-81
2022/02/05 10:05:08;;;;;;;;;8.25;1.50;;;;;8.01;100.00;102278.69;5078906;27;46262;-82
2022/02/05 10:07:36;;;;;;;;;2.75;2.00;;;;;8.06;100.00;102287.69;5078184;27;45471;-78
2022/02/05 10:10:06;;;;;;;;;6.50;2.75;;;;;8.10;100.00;102289.72;5078854;28;45305;-81
2022/02/05 10:12:32;;;;;;;;;3.00;2.00;;;;;8.10;100.00;102286.25;5078654;28;45469;-79
2022/02/05 10:15:01;;;;;;;;;7.25;4.75;;;;;8.12;100.00;102289.84;5075562;28;46447;-80
2022/02/05 10:17:37;;;;;;;;;9.50;7.25;;;;;8.15;100.00;102297.84;5075544;28;45492;-81
2022/02/05 10:20:04;;;;;;;;;3.25;3.25;;;;;8.15;100.00;102290.09;5076562;27;45426;-83
2022/02/05 10:22:39;;;;;;;;;4.25;2.00;;;;;8.18;100.00;102296.41;5076132;27;45413;-83
2022/02/05 10:25:16;;;;;;;;;4.25;4.25;;;;;8.19;100.00;102300.78;5056847;27;47507;-82
2022/02/05 10:27:45;;;;;;;;;2.50;2.50;;;;;8.19;100.00;102298.22;5075732;27;45398;-83
2022/02/05 10:30:11;;;;;;;;;2.75;2.75;;;;;8.21;100.00;102299.19;5078444;28;45421;-83
2022/02/05 10:32:42;;;;;;;;;4.25;4.00;;;;;8.24;100.00;102305.38;5061480;28;45335;-82
2022/02/05 10:38:01;;;;;;;;;5.00;4.00;;;;;8.31;100.00;102306.00;5077630;28;45330;-81
2022/02/05 10:40:43;;;;;;;;;8.00;4.50;;;;;8.37;100.00;102311.63;5077347;28;45443;-83
2022/02/05 10:43:10;;;;;;;;;3.25;3.25;;;;;8.44;100.00;102322.44;5077902;27;45335;-77
2022/02/05 10:45:46;;;;;;;;;3.00;3.00;;;;;8.48;100.00;102325.41;5077561;28;46150;-78
2022/02/05 10:48:15;;;;;;;;;5.00;3.25;;;;;8.53;100.00;102325.75;5077307;27;45752;-81
2022/02/05 10:50:41;;;;;;;;;10.50;6.50;;;;;8.55;100.00;102324.22;5090068;28;45350;-83
2022/02/05 10:53:28;;;;;;;;;4.75;4.25;;;;;8.56;100.00;102323.44;5090593;28;45246;-82
2022/02/05 10:56:22;;;;;;;;;6.25;5.00;;;;;8.65;100.00;102321.56;5077516;28;45433;-78
2022/02/05 10:59:15;;;;;;;;;3.50;2.25;;;;;8.69;100.00;102329.53;5077579;27;45897;-84
2022/02/05 11:07:16;;;;;;;;;3.00;3.00;;;;;8.68;100.00;102326.03;5077214;28;45867;-83
2022/02/05 11:09:46;;;;;;;;;4.25;4.25;;;;;8.70;100.00;102333.91;5059175;28;45718;-81
2022/02/05 11:15:22;;;;;;;;;5.25;4.00;;;;;8.77;100.00;102328.44;5077124;28;45319;-79
2022/02/05 11:20:32;;;;;;;;;7.50;5.00;;;;;8.83;100.00;102326.31;5077201;27;45238;-81
2022/02/05 11:23:06;;;;;;;;;4.75;4.50;;;;;8.88;100.00;102324.06;5077077;27;45213;-82
2022/02/05 11:25:35;;;;;;;;;4.00;3.00;;;;;8.94;100.00;102325.44;5077984;27;45277;-82
2022/02/05 11:28:02;;;;;;;;;3.50;3.00;;;;;8.94;100.00;102309.94;5077709;27;46193;-81
2022/02/05 11:30:28;;;;;;;;;2.00;2.00;;;;;8.95;100.00;102318.63;5076599;28;45445;-78
2022/02/05 11:33:05;;;;;;;;;4.50;4.25;;;;;8.97;100.00;102325.69;5058788;28;45451;-82
2022/02/05 11:38:29;;;;;;;;;3.00;2.00;;;;;9.03;100.00;102302.00;5076753;27;45760;-83
2022/02/05 11:40:55;;;;;;;;;3.50;2.50;;;;;9.07;100.00;102297.97;5076766;27;45809;-83
2022/02/05 11:43:32;;;;;;;;;6.75;3.00;;;;;9.08;100.00;102295.47;5076633;27;45429;-81
2022/02/05 11:46:09;;;;;;;;;4.75;4.75;;;;;9.12;100.00;102299.22;5077518;28;45329;-82
2022/02/05 11:48:38;;;;;;;;;2.25;2.25;;;;;9.17;100.00;102300.44;5076831;27;45232;-78
2022/02/05 11:51:24;;;;;;;;;5.75;5.00;;;;;9.23;100.00;102303.47;5076346;28;45827;-78
2022/02/05 11:53:58;;;;;;;;;4.50;3.00;;;;;9.25;100.00;102294.16;5076823;28;45424;-81
2022/02/05 11:59:14;;;;;;;;;5.25;4.00;;;;;9.26;100.00;102295.97;5076279;27;45961;-85
2022/02/05 12:01:40;;;;;;;;;3.75;2.50;;;;;9.33;100.00;102278.34;5076948;27;45237;-77
2022/02/05 12:04:11;;;;;;;;;3.00;3.00;;;;;9.35;100.00;102281.91;5076938;28;45221;-83
2022/02/05 12:06:50;;;;;;;;;7.50;4.00;;;;;9.41;100.00;102266.88;5076843;28;45457;-79
2022/02/05 12:09:36;;;;;;;;;1.75;1.25;;;;;9.44;100.00;102274.84;5076781;27;45554;-86
2022/02/05 12:12:40;;;;;;;;;3.50;3.00;;;;;9.48;100.00;102271.69;5077218;27;45350;-80
2022/02/05 12:15:08;;;;;;;;;1.00;0.75;;;;;9.50;100.00;102266.66;4995992;28;45435;-80
2022/02/05 12:18:13;;;;;;;;;2.50;2.00;;;;;9.52;100.00;102267.63;5063372;28;45706;-82
2022/02/05 12:20:51;;;;;;;;;1.00;1.00;;;;;9.54;100.00;102263.47;5076115;28;46727;-81
2022/02/05 12:26:00;;;;;;;;;1.50;1.00;;;;;9.52;100.00;102257.28;5080660;27;45210;-90
2022/02/05 12:28:34;;;;;;;;;3.25;1.00;;;;;9.51;96.61;102248.66;5077425;28;45242;-85
2022/02/05 12:31:02;;;;;;;;;1.50;1.50;;;;;9.53;100.00;102257.41;5076539;28;45498;-83
2022/02/05 12:33:47;;;;;;;;;3.75;2.25;;;;;9.53;98.00;102241.00;5076145;28;45842;-86
2022/02/05 12:36:24;;;;;;;;;1.50;1.50;;;;;9.58;100.00;102237.94;5072921;28;45434;-85
2022/02/05 12:38:53;;;;;;;;;1.00;1.00;;;;;9.65;98.89;102228.94;5076316;27;45449;-87
2022/02/05 12:41:21;;;;;;;;;4.00;1.75;;;;;9.69;94.96;102236.16;5077235;28;45551;-83
2022/02/05 12:43:58;;;;;;;;;1.00;0.75;;;;;9.75;89.51;102240.88;5078659;28;45871;-88
2022/02/05 12:46:33;;;;;;;;;3.00;2.00;;;;;9.81;86.75;102243.88;5074869;28;45402;-83
2022/02/05 12:49:07;;;;;;;;;1.75;1.00;;;;;9.86;86.12;102254.53;5073793;28;45373;-82
2022/02/05 12:51:33;;;;;;;;;1.00;1.00;;;;;9.91;85.73;102242.84;5056953;28;47664;-82
2022/02/05 12:54:13;;;;;;;;;0.25;0.00;;;;;9.98;84.19;102251.94;5076555;28;46625;-83
2022/02/05 12:56:40;;;;;;;;;1.50;1.50;;;;;10.06;83.57;102248.19;5077729;27;45923;-79
2022/02/05 12:59:14;;;;;;;;;1.75;0.75;;;;;10.18;83.09;102254.22;5075953;27;45537;-82
2022/02/05 13:02:03;;;;;;;;;1.75;1.00;;;;;10.29;80.48;102239.44;5075187;28;45556;-84
2022/02/05 13:04:37;;;;;;;;;1.50;1.00;;;;;10.38;78.49;102237.50;5075912;27;45342;-82
2022/02/05 13:07:10;;;;;;;;;1.25;1.00;;;;;10.44;78.10;102241.31;5083847;27;46124;-84
2022/02/05 13:09:52;;;;;;;;;1.00;1.00;;;;;10.46;78.08;102248.41;5078796;27;45388;-85
2022/02/05 13:12:21;;;;;;;;;3.00;3.00;;;;;10.58;78.87;102243.16;5062690;27;45323;-80
2022/02/05 13:14:57;;;;;;;;;4.75;2.00;;;;;10.67;78.79;102245.47;5057369;28;45807;-80
2022/02/05 13:34:24;;;;;;;;;1.00;1.00;;;;;11.20;78.48;102218.72;5074759;27;45873;-79
2022/02/05 13:42:05;;;;;;;;;11.00;7.75;;;;;11.56;78.90;102198.53;5078431;28;45301;-80
2022/02/05 13:45:10;;;;;;;;;9.75;6.50;;;;;11.67;79.44;102198.28;5076404;28;45511;-81
2022/02/05 13:47:48;;;;;;;;;2.00;2.00;;;;;11.70;76.34;102204.59;5069351;27;45819;-81
2022/02/05 13:50:27;;;;;;;;;4.25;2.25;;;;;11.78;74.40;102199.88;5078798;27;45258;-82
2022/02/05 13:53:03;;;;;;;;;0.25;0.00;;;;;11.77;71.77;102205.84;5078778;27;45409;-84
2022/02/05 13:55:34;;;;;;;;;3.00;1.00;;;;;11.75;73.58;102197.09;5055744;27;46938;-85
2022/02/05 13:58:08;;;;;;;;;2.75;2.00;;;;;11.81;73.12;102212.16;5077484;28;45422;-84
2022/02/05 14:00:42;;;;;;;;;4.00;2.00;;;;;11.84;71.57;102200.28;5080159;28;45493;-78
2022/02/05 14:03:09;;;;;;;;;3.00;3.00;;;;;11.95;72.09;102197.44;5061926;28;45500;-83
2022/02/05 14:05:41;;;;;;;;;2.75;1.50;;;;;11.98;69.87;102202.84;5078784;28;46143;-82
2022/02/05 14:08:07;;;;;;;;;1.00;0.00;;;;;11.99;72.77;102189.06;5059980;27;45991;-85
2022/02/05 14:10:34;;;;;;;;;3.00;3.00;;;;;12.06;73.14;102199.03;5079592;27;45514;-84
2022/02/05 14:12:59;;;;;;;;;1.00;1.00;;;;;12.12;69.92;102203.69;5080945;28;45324;-86
2022/02/05 14:15:27;;;;;;;;;3.00;1.00;;;;;12.24;69.22;102199.25;5078187;28;45268;-83
2022/02/05 14:18:12;;;;;;;;;1.00;1.00;;;;;12.20;66.14;102200.75;5078259;27;45660;-84
2022/02/05 14:20:57;;;;;;;;;1.75;0.75;;;;;12.21;64.59;102204.25;5077965;28;45230;-82
2022/02/05 14:23:25;;;;;;;;;0.00;0.00;;;;;12.29;65.80;102190.03;5078299;27;45248;-82
2022/02/05 14:25:58;;;;;;;;;0.75;0.75;;;;;12.32;63.60;102185.03;5062365;28;45627;-85
2022/02/05 14:28:31;;;;;;;;;2.50;1.25;;;;;12.39;63.99;102194.09;5063020;28;45411;-76
2022/02/05 14:31:18;;;;;;;;;1.50;1.50;;;;;12.40;56.85;102195.88;5060859;28;45224;-78
2022/02/05 14:34:08;;;;;;;;;2.25;1.00;;;;;12.42;58.89;102196.84;5059934;28;45562;-80